Time;durP1;ratioP1;P1;durP2;ratioP2;P2;SDS_P1;SDS_P2;PMS_P1;PMS_P2;Temp;Humidity;BMP_temperature;BMP_pressure;BME280_temperature;BME280_humidity;BME280_pressure;Samples;Min_cycle;Max_cycle;Signal;HPM_P1;HPM_P2
2024/02/22 00:00:59;;;;;;;18.92;6.20;;;;;;;14.30;87.51;99891.88;5052435;28;20113;-47
2024/02/22 00:03:25;;;;;;;23.75;7.25;;;;;;;14.26;88.56;99892.81;5053261;28;20052;-48
2024/02/22 00:05:50;;;;;;;27.00;6.80;;;;;;;14.53;86.69;99892.34;5053651;28;20569;-46
2024/02/22 00:08:15;;;;;;;23.27;7.05;;;;;;;14.32;87.69;99882.25;5054528;28;20041;-47
2024/02/22 00:10:41;;;;;;;23.45;7.15;;;;;;;14.03;88.21;99885.31;5055971;28;20063;-48
2024/02/22 00:13:07;;;;;;;27.80;7.97;;;;;;;14.28;87.53;99885.78;5055310;28;20086;-47
2024/02/22 00:15:32;;;;;;;29.10;8.48;;;;;;;14.23;87.93;99883.25;5038727;28;20045;-44
2024/02/22 00:17:58;;;;;;;30.95;8.82;;;;;;;14.53;86.54;99888.88;5053997;28;20036;-47
2024/02/22 00:20:23;;;;;;;32.05;9.93;;;;;;;14.32;87.71;99876.13;5052738;28;20035;-43
2024/02/22 00:22:48;;;;;;;36.08;9.65;;;;;;;14.16;88.65;99878.13;5052413;28;20029;-46
2024/02/22 00:25:15;;;;;;;38.75;9.60;;;;;;;14.30;87.47;99877.91;5052626;28;20037;-45
2024/02/22 00:27:40;;;;;;;31.40;8.90;;;;;;;14.17;88.47;99867.63;5052057;28;20534;-45
2024/02/22 00:30:09;;;;;;;31.25;9.10;;;;;;;14.16;87.57;99863.28;5034379;28;20033;-47
2024/02/22 00:32:35;;;;;;;40.63;9.55;;;;;;;14.29;87.71;99861.28;5052523;28;20037;-46
2024/02/22 00:35:01;;;;;;;33.05;9.63;;;;;;;14.38;87.56;99858.56;5052488;28;20025;-44
2024/02/22 00:37:26;;;;;;;35.08;9.10;;;;;;;14.59;86.66;99857.28;5052100;28;20555;-48
2024/02/22 00:39:51;;;;;;;38.92;9.50;;;;;;;14.24;88.55;99857.91;5051137;28;20511;-50
2024/02/22 00:42:16;;;;;;;38.05;8.45;;;;;;;14.06;88.28;99863.47;5052359;28;20063;-44
2024/02/22 00:44:42;;;;;;;37.08;7.90;;;;;;;14.33;88.16;99854.25;5051583;28;20033;-47
2024/02/22 00:47:07;;;;;;;42.78;8.82;;;;;;;14.45;87.52;99854.94;5052064;28;20709;-45
2024/02/22 00:49:33;;;;;;;40.70;7.95;;;;;;;14.33;88.28;99852.50;5051880;28;20044;-46
2024/02/22 00:51:58;;;;;;;33.67;7.90;;;;;;;14.40;87.07;99848.88;5051037;28;20055;-48
2024/02/22 00:54:23;;;;;;;42.00;7.68;;;;;;;14.06;87.34;99845.13;5051936;28;20064;-44
2024/02/22 00:56:49;;;;;;;45.88;8.20;;;;;;;14.01;88.41;99846.94;5051431;28;20455;-50
2024/02/22 00:59:14;;;;;;;44.03;8.32;;;;;;;14.28;87.63;99835.09;5052268;28;20098;-45
2024/02/22 01:01:41;;;;;;;37.70;7.30;;;;;;;14.26;87.80;99835.16;5050966;28;20120;-47
2024/02/22 01:04:07;;;;;;;42.08;7.60;;;;;;;14.21;88.15;99842.22;5051639;28;20032;-47
2024/02/22 01:06:33;;;;;;;44.67;7.85;;;;;;;14.63;86.40;99840.59;5051432;28;20124;-45
2024/02/22 01:08:59;;;;;;;38.70;7.07;;;;;;;14.30;87.84;99839.44;5051124;28;20037;-46
2024/02/22 01:11:24;;;;;;;43.95;6.68;;;;;;;14.52;86.72;99829.44;5051636;28;20079;-45
2024/02/22 01:13:50;;;;;;;31.15;6.40;;;;;;;14.87;85.49;99829.63;5051490;28;20045;-46
2024/02/22 01:16:18;;;;;;;30.60;6.28;;;;;;;14.60;85.27;99833.66;5052856;28;20039;-46
2024/02/22 01:18:44;;;;;;;30.55;5.90;;;;;;;14.50;86.54;99829.47;5053946;28;20033;-48
2024/02/22 01:21:11;;;;;;;33.72;6.28;;;;;;;14.41;86.92;99820.91;5051493;28;20070;-44
2024/02/22 01:23:36;;;;;;;29.83;5.90;;;;;;;14.33;87.52;99825.41;5051070;28;20048;-46
2024/02/22 01:26:01;;;;;;;37.33;6.18;;;;;;;14.25;88.43;99822.06;5050985;28;20032;-48
2024/02/22 01:28:26;;;;;;;33.13;6.25;;;;;;;14.60;86.45;99814.41;5051343;28;20036;-46
2024/02/22 01:30:52;;;;;;;35.25;6.50;;;;;;;14.50;86.73;99805.00;5050174;28;20032;-46
2024/02/22 01:33:18;;;;;;;45.33;7.25;;;;;;;14.17;87.95;99799.47;5050846;28;20116;-46
2024/02/22 01:35:43;;;;;;;42.30;7.70;;;;;;;14.18;86.88;99803.81;5051673;28;20033;-47
2024/02/22 01:38:08;;;;;;;39.70;7.80;;;;;;;14.42;86.44;99799.03;5051839;28;20033;-49
2024/02/22 01:40:34;;;;;;;49.92;7.60;;;;;;;14.27;87.30;99796.69;5050693;28;20341;-45
2024/02/22 01:42:59;;;;;;;42.35;7.47;;;;;;;14.60;85.33;99791.69;5050281;28;20029;-46
2024/02/22 01:45:24;;;;;;;50.80;8.40;;;;;;;14.19;87.09;99791.59;5050977;28;20475;-47
2024/02/22 01:47:50;;;;;;;45.83;7.72;;;;;;;14.31;87.44;99786.13;5050433;28;20128;-47
2024/02/22 01:50:17;;;;;;;40.65;7.90;;;;;;;14.25;85.87;99781.00;5050420;28;20039;-45
2024/02/22 01:52:43;;;;;;;48.85;7.72;;;;;;;14.60;85.47;99785.56;5050403;28;20056;-48
2024/02/22 01:55:10;;;;;;;47.38;7.90;;;;;;;14.35;85.97;99781.66;5050694;28;20040;-47
2024/02/22 01:57:36;;;;;;;53.75;8.75;;;;;;;14.07;86.69;99787.44;5050807;28;20091;-45
2024/02/22 02:00:08;;;;;;;50.58;8.63;;;;;;;14.24;86.38;99774.00;5050077;28;20362;-47
2024/02/22 02:02:33;;;;;;;49.00;8.02;;;;;;;14.33;86.30;99762.50;5050555;28;20483;-46
2024/02/22 02:04:59;;;;;;;48.42;7.43;;;;;;;13.95;87.11;99760.59;5050421;28;20043;-45
2024/02/22 02:07:24;;;;;;;42.25;7.63;;;;;;;14.48;86.13;99759.59;5050450;28;20061;-46
2024/02/22 02:09:51;;;;;;;47.53;7.60;;;;;;;14.42;85.87;99764.97;5049528;28;20056;-45
2024/02/22 02:12:23;;;;;;;46.17;6.80;;;;;;;14.61;84.84;99758.44;5050491;28;20033;-45
2024/02/22 02:14:48;;;;;;;52.67;7.60;;;;;;;14.16;86.79;99760.19;5050023;28;20212;-46
2024/02/22 02:17:14;;;;;;;49.28;7.00;;;;;;;14.36;85.53;99758.03;5051442;28;20473;-50
2024/02/22 02:19:40;;;;;;;50.58;7.85;;;;;;;14.53;84.71;99742.00;5050812;28;20041;-46
2024/02/22 02:22:11;;;;;;;47.97;6.93;;;;;;;13.86;86.74;99753.75;5033039;28;20037;-46
2024/02/22 02:24:44;;;;;;;49.08;6.97;;;;;;;14.27;85.28;99749.50;5050480;28;20052;-51
2024/02/22 02:27:10;;;;;;;41.65;5.90;;;;;;;14.52;84.36;99735.00;5050641;28;20057;-46
2024/02/22 02:29:36;;;;;;;44.65;6.53;;;;;;;14.41;84.43;99742.25;5049836;28;20450;-50
2024/02/22 02:32:01;;;;;;;34.80;5.32;;;;;;;14.62;83.62;99749.69;5050140;28;20037;-46
2024/02/22 02:34:26;;;;;;;46.20;6.32;;;;;;;14.34;84.50;99745.84;5050111;28;20025;-49
2024/02/22 02:36:52;;;;;;;43.95;5.65;;;;;;;14.46;84.49;99746.50;5049274;28;20086;-46
2024/02/22 02:39:17;;;;;;;46.25;6.40;;;;;;;14.22;85.16;99742.56;5049582;28;20048;-48
2024/02/22 02:41:42;;;;;;;52.47;5.93;;;;;;;14.28;84.69;99743.34;5048743;28;20057;-47
2024/02/22 02:44:08;;;;;;;43.38;6.45;;;;;;;14.09;85.37;99741.06;5049845;28;20120;-45
2024/02/22 02:46:33;;;;;;;53.45;6.63;;;;;;;14.09;85.97;99737.59;5049632;28;20040;-47
2024/02/22 02:48:59;;;;;;;51.67;6.70;;;;;;;14.25;84.98;99733.81;5049064;28;20068;-48
2024/02/22 02:51:24;;;;;;;46.58;7.30;;;;;;;14.05;85.13;99738.56;5049566;28;20044;-46
2024/02/22 02:53:49;;;;;;;50.35;6.82;;;;;;;14.26;84.60;99726.81;5049223;28;20136;-50
2024/02/22 02:56:15;;;;;;;52.33;6.32;;;;;;;14.09;85.31;99725.34;5050021;28;20040;-48
2024/02/22 02:58:40;;;;;;;49.63;6.50;;;;;;;14.28;85.01;99715.38;5049231;28;20033;-50
2024/02/22 03:01:06;;;;;;;51.58;6.63;;;;;;;14.34;84.71;99714.38;5049136;28;20029;-47
2024/02/22 03:03:31;;;;;;;51.17;6.97;;;;;;;14.18;84.57;99714.72;5049660;28;20044;-43
2024/02/22 03:05:57;;;;;;;45.40;6.57;;;;;;;14.28;85.15;99706.66;5052412;22;20034;-81
2024/02/22 03:08:26;;;;;;;46.75;7.13;;;;;;;13.92;86.30;99716.94;5092605;28;20039;-82
2024/02/22 03:10:51;;;;;;;53.13;8.00;;;;;;;13.94;85.93;99714.31;5090785;28;20040;-80
2024/02/22 03:13:16;;;;;;;58.15;7.72;;;;;;;14.31;85.28;99707.47;5090069;28;20051;-80
2024/02/22 03:15:48;;;;;;;48.10;7.35;;;;;;;14.27;84.24;99697.06;5081865;28;20033;-79
2024/02/22 03:18:14;;;;;;;50.17;7.45;;;;;;;14.36;83.65;99695.13;5070892;28;20041;-81
2024/02/22 03:20:40;;;;;;;52.95;7.63;;;;;;;14.16;84.17;99689.41;5063054;22;20041;-50
2024/02/22 03:23:05;;;;;;;52.58;8.40;;;;;;;14.37;84.28;99686.41;5049292;28;20076;-49
2024/02/22 03:25:30;;;;;;;57.50;7.78;;;;;;;14.38;82.96;99684.63;5052548;28;20029;-45
2024/02/22 03:27:58;;;;;;;55.70;7.75;;;;;;;14.57;82.94;99684.22;5053296;28;20033;-44
2024/02/22 03:30:24;;;;;;;47.38;7.13;;;;;;;14.55;82.99;99679.88;5053286;28;20043;-46
2024/02/22 03:32:51;;;;;;;52.58;7.93;;;;;;;14.70;82.82;99679.53;5053024;28;20119;-45
2024/02/22 03:35:16;;;;;;;49.97;6.85;;;;;;;14.66;82.51;99677.03;5053325;28;20086;-47
2024/02/22 03:37:43;;;;;;;42.60;6.80;;;;;;;14.74;82.34;99670.72;5052710;28;20037;-49
2024/02/22 03:40:09;;;;;;;61.63;7.63;;;;;;;14.38;83.40;99668.91;5052731;28;20049;-50
2024/02/22 03:42:34;;;;;;;60.88;7.97;;;;;;;13.98;85.38;99663.56;5053565;28;20033;-46
2024/02/22 03:44:59;;;;;;;54.70;7.97;;;;;;;14.26;84.15;99654.28;5052923;28;20037;-47
2024/02/22 03:47:25;;;;;;;51.85;7.32;;;;;;;14.44;84.12;99653.91;5053254;28;20033;-47
2024/02/22 03:49:50;;;;;;;50.55;7.25;;;;;;;14.34;83.60;99654.94;5050720;28;20045;-46
2024/02/22 03:52:15;;;;;;;49.70;7.05;;;;;;;14.44;83.74;99645.19;5053393;28;20613;-47
2024/02/22 03:54:41;;;;;;;60.58;6.95;;;;;;;14.33;82.97;99636.66;5052537;28;20037;-52
2024/02/22 03:57:06;;;;;;;56.38;6.72;;;;;;;14.54;82.34;99644.06;5052854;28;20033;-51
2024/02/22 03:59:31;;;;;;;53.55;6.30;;;;;;;14.55;82.76;99645.78;5052637;28;20064;-47
2024/02/22 04:01:57;;;;;;;43.58;6.55;;;;;;;14.68;81.98;99649.00;5051975;28;20033;-46
2024/02/22 04:04:23;;;;;;;55.13;6.05;;;;;;;14.72;81.55;99634.91;5053036;28;20029;-47
2024/02/22 04:06:49;;;;;;;46.80;5.75;;;;;;;14.85;80.72;99636.34;5052558;28;20116;-48
2024/02/22 04:09:14;;;;;;;46.75;6.50;;;;;;;14.32;82.62;99617.44;5052652;28;20045;-49
2024/02/22 04:11:40;;;;;;;38.90;5.68;;;;;;;14.61;82.27;99624.69;5051798;28;20033;-48
2024/02/22 04:14:05;;;;;;;45.75;6.45;;;;;;;14.76;81.64;99616.44;5052481;28;20713;-46
2024/02/22 04:16:30;;;;;;;42.20;5.82;;;;;;;14.56;82.14;99616.91;5052480;28;20121;-48
2024/02/22 04:18:56;;;;;;;44.55;6.07;;;;;;;14.45;82.29;99618.94;5051534;28;20438;-46
2024/02/22 04:21:21;;;;;;;50.15;6.90;;;;;;;14.41;82.04;99614.63;5052075;28;20041;-49
2024/02/22 04:23:46;;;;;;;44.03;5.63;;;;;;;14.15;82.99;99606.41;5051824;28;20064;-48
2024/02/22 04:26:12;;;;;;;38.75;5.45;;;;;;;14.38;82.02;99604.22;5052228;28;20121;-45
2024/02/22 04:28:37;;;;;;;47.88;5.10;;;;;;;14.16;82.67;99610.78;5052210;28;20037;-47
2024/02/22 04:31:04;;;;;;;44.67;5.65;;;;;;;14.21;82.43;99606.28;5052181;28;20115;-45
2024/02/22 04:33:29;;;;;;;41.22;4.75;;;;;;;14.35;81.29;99604.25;5052577;28;20060;-46
2024/02/22 04:35:55;;;;;;;43.58;5.85;;;;;;;14.03;81.35;99594.44;5051276;28;20415;-47
2024/02/22 04:38:22;;;;;;;40.30;5.63;;;;;;;13.87;82.43;99600.03;5052207;28;20084;-48
2024/02/22 04:40:48;;;;;;;44.67;5.32;;;;;;;13.68;82.50;99596.91;5051196;28;20041;-47
2024/02/22 04:43:13;;;;;;;42.13;4.82;;;;;;;13.79;82.25;99598.44;5052018;28;20399;-48
2024/02/22 04:45:38;;;;;;;38.72;4.60;;;;;;;13.51;83.10;99593.75;5051841;28;20033;-47
2024/02/22 04:48:06;;;;;;;37.72;5.57;;;;;;;13.94;81.34;99594.66;5052093;28;20057;-47
2024/02/22 04:50:34;;;;;;;36.17;4.55;;;;;;;13.95;80.54;99583.28;5051638;28;20048;-47
2024/02/22 04:53:01;;;;;;;35.85;4.30;;;;;;;13.68;81.10;99579.44;5051426;28;20444;-48
2024/02/22 04:55:27;;;;;;;49.20;5.55;;;;;;;13.67;81.46;99587.31;5051977;28;20713;-51
2024/02/22 04:57:54;;;;;;;38.53;4.47;;;;;;;13.64;81.86;99577.78;5051173;28;20071;-48
2024/02/22 05:00:19;;;;;;;34.42;4.15;;;;;;;13.74;80.93;99566.22;5050916;28;20033;-48
2024/02/22 05:02:44;;;;;;;38.75;4.30;;;;;;;13.57;80.75;99563.09;5051244;28;20051;-47
2024/02/22 05:05:10;;;;;;;29.30;4.85;;;;;;;13.65;80.92;99557.72;5052316;28;20025;-47
2024/02/22 05:07:36;;;;;;;44.67;4.65;;;;;;;13.35;81.37;99560.03;5051721;28;20068;-47
2024/02/22 05:10:03;;;;;;;43.78;5.05;;;;;;;13.28;81.82;99565.41;5051160;28;20402;-48
2024/02/22 05:12:29;;;;;;;30.63;4.38;;;;;;;13.54;81.62;99565.75;5051754;28;20086;-48
2024/02/22 05:14:55;;;;;;;40.03;4.95;;;;;;;13.61;81.17;99558.66;5051140;28;20120;-47
2024/02/22 05:17:21;;;;;;;39.72;4.18;;;;;;;13.64;81.42;99545.50;5051823;28;20568;-48
2024/02/22 05:19:47;;;;;;;40.53;4.75;;;;;;;13.68;81.36;99552.41;5050880;28;20066;-45
2024/02/22 05:22:13;;;;;;;45.33;5.07;;;;;;;13.85;81.45;99542.44;5051769;28;20143;-47
2024/02/22 05:24:38;;;;;;;37.42;5.35;;;;;;;13.93;80.91;99543.13;5051328;28;20056;-48
2024/02/22 05:27:04;;;;;;;44.42;4.85;;;;;;;13.90;80.93;99537.13;5051897;28;20033;-51
2024/02/22 05:29:30;;;;;;;43.10;4.43;;;;;;;13.56;82.10;99536.94;5051408;28;20045;-46
2024/02/22 05:31:56;;;;;;;32.10;4.07;;;;;;;13.81;82.11;99535.53;5050583;28;20033;-52
2024/02/22 05:34:22;;;;;;;33.38;3.88;;;;;;;13.90;80.91;99534.50;5051218;28;20041;-48
2024/02/22 05:36:47;;;;;;;43.42;4.30;;;;;;;13.71;81.78;99531.41;5050527;28;20117;-48
2024/02/22 05:39:12;;;;;;;41.53;4.72;;;;;;;13.89;81.56;99531.00;5051063;28;20029;-51
2024/02/22 05:41:37;;;;;;;35.10;4.72;;;;;;;14.05;81.44;99534.16;5050408;28;20464;-45
2024/02/22 05:44:04;;;;;;;45.67;5.80;;;;;;;13.64;83.18;99528.03;5051866;28;20150;-50
2024/02/22 05:46:29;;;;;;;45.25;6.00;;;;;;;13.52;82.76;99530.91;5049856;28;20534;-50
2024/02/22 05:48:55;;;;;;;44.25;5.13;;;;;;;13.54;83.16;99523.03;5049403;28;20175;-49
2024/02/22 05:51:20;;;;;;;46.97;5.50;;;;;;;13.95;81.45;99517.78;5050519;28;20525;-47
2024/02/22 05:53:45;;;;;;;37.50;5.35;;;;;;;13.93;81.99;99503.84;5050473;28;20041;-47
2024/02/22 05:56:10;;;;;;;43.80;5.82;;;;;;;13.55;83.08;99501.16;5050501;28;20052;-48
2024/02/22 05:58:36;;;;;;;43.83;5.15;;;;;;;14.08;81.38;99498.28;5050382;28;20191;-52
2024/02/22 06:01:01;;;;;;;50.70;5.63;;;;;;;13.99;81.46;99489.72;5049985;28;20402;-48
2024/02/22 06:03:26;;;;;;;40.15;5.55;;;;;;;14.09;81.05;99491.25;5050708;28;20037;-46
2024/02/22 06:05:52;;;;;;;39.28;5.15;;;;;;;14.04;81.58;99485.25;5050425;28;20090;-49
2024/02/22 06:08:18;;;;;;;36.38;5.72;;;;;;;14.30;81.04;99479.41;5050740;28;20033;-50
2024/02/22 06:10:44;;;;;;;41.17;5.53;;;;;;;14.27;80.71;99477.75;5049294;28;20064;-49
2024/02/22 06:13:09;;;;;;;40.70;5.70;;;;;;;14.15;81.38;99470.13;5050307;28;20068;-50
2024/02/22 06:15:35;;;;;;;35.30;5.40;;;;;;;14.02;81.80;99468.72;5050100;28;20106;-50
2024/02/22 06:18:00;;;;;;;35.80;5.65;;;;;;;14.18;81.16;99460.47;5049690;28;20789;-51
2024/02/22 06:20:25;;;;;;;35.45;6.35;;;;;;;14.27;80.94;99448.03;5049601;28;20040;-47
2024/02/22 06:22:52;;;;;;;41.30;6.78;;;;;;;14.25;80.32;99453.31;5049801;28;20041;-48
2024/02/22 06:25:17;;;;;;;38.47;6.00;;;;;;;14.26;81.32;99447.19;5050293;28;20040;-49
2024/02/22 06:27:43;;;;;;;30.27;5.82;;;;;;;14.40;80.63;99442.47;5049495;28;20037;-47
2024/02/22 06:30:09;;;;;;;32.60;5.70;;;;;;;14.26;80.71;99438.44;5049346;28;20033;-47
2024/02/22 06:32:35;;;;;;;35.17;6.35;;;;;;;14.19;80.93;99435.09;5049422;28;20041;-48
2024/02/22 06:35:01;;;;;;;36.95;6.60;;;;;;;13.86;81.21;99428.88;5049889;28;20032;-48
2024/02/22 06:37:27;;;;;;;34.88;6.82;;;;;;;14.19;80.67;99419.38;5049973;28;20041;-53
2024/02/22 06:39:52;;;;;;;29.02;6.28;;;;;;;14.30;80.61;99416.50;5047679;28;20040;-46
2024/02/22 06:42:18;;;;;;;38.47;6.97;;;;;;;14.15;80.89;99409.84;5050068;28;20044;-49
2024/02/22 06:44:45;;;;;;;30.35;6.88;;;;;;;14.26;80.10;99405.22;5049280;28;20487;-49
2024/02/22 06:47:11;;;;;;;36.20;6.68;;;;;;;14.29;80.16;99397.28;5049508;28;20071;-50
2024/02/22 06:49:36;;;;;;;41.90;6.88;;;;;;;14.35;79.83;99385.78;5048944;28;20045;-52
2024/02/22 06:52:01;;;;;;;35.22;6.45;;;;;;;14.24;80.61;99375.56;5049265;28;20399;-50
2024/02/22 06:54:28;;;;;;;30.75;6.10;;;;;;;14.55;79.49;99360.78;5049716;28;20041;-48
2024/02/22 06:56:53;;;;;;;29.88;6.22;;;;;;;14.60;79.02;99358.91;5049222;28;20037;-48
2024/02/22 06:59:18;;;;;;;29.88;6.80;;;;;;;14.65;79.13;99366.63;5049076;28;20043;-49
2024/02/22 07:01:44;;;;;;;28.13;6.93;;;;;;;14.63;79.17;99368.47;5048703;28;20033;-48
2024/02/22 07:04:09;;;;;;;34.28;6.82;;;;;;;14.67;79.21;99366.59;5049430;28;20074;-48
2024/02/22 07:06:35;;;;;;;26.90;6.97;;;;;;;14.28;80.64;99366.72;5049381;28;20070;-46
2024/02/22 07:09:02;;;;;;;27.73;7.10;;;;;;;14.66;79.22;99365.75;5049702;28;20122;-48
2024/02/22 07:11:29;;;;;;;33.83;8.35;;;;;;;14.27;79.14;99364.16;5049120;28;20140;-47
2024/02/22 07:13:56;;;;;;;33.88;8.13;;;;;;;14.37;80.04;99368.25;5049173;28;20064;-51
2024/02/22 07:16:23;;;;;;;35.30;9.32;;;;;;;14.34;79.76;99353.44;5049197;28;20037;-46
2024/02/22 07:18:48;;;;;;;36.60;9.55;;;;;;;14.59;78.63;99345.81;5048577;28;20106;-48
2024/02/22 07:21:14;;;;;;;28.55;8.73;;;;;;;14.70;78.31;99328.03;5048706;28;20068;-47
2024/02/22 07:23:39;;;;;;;32.10;8.85;;;;;;;14.53;78.83;99319.75;5046949;28;20120;-45
2024/02/22 07:26:10;;;;;;;34.33;9.98;;;;;;;14.29;78.62;99328.25;5049010;28;20562;-46
2024/02/22 07:28:36;;;;;;;27.63;9.00;;;;;;;14.53;78.65;99315.38;5048965;28;20495;-49
2024/02/22 07:31:02;;;;;;;35.60;9.40;;;;;;;14.55;78.71;99323.22;5049168;28;20106;-44
2024/02/22 07:33:29;;;;;;;25.48;9.30;;;;;;;14.75;77.50;99317.44;5049636;28;20119;-46
2024/02/22 07:35:55;;;;;;;27.90;9.10;;;;;;;14.11;79.58;99303.38;5048901;28;20475;-48
2024/02/22 07:38:20;;;;;;;28.77;8.48;;;;;;;14.29;79.38;99313.38;5049169;28;20167;-46
2024/02/22 07:40:45;;;;;;;24.60;8.75;;;;;;;14.42;78.55;99295.59;5048182;28;20029;-49
2024/02/22 07:43:11;;;;;;;28.40;7.90;;;;;;;14.81;76.96;99293.63;5048896;28;20029;-52
2024/02/22 07:45:36;;;;;;;24.42;8.38;;;;;;;14.90;76.94;99288.09;5048680;28;20411;-50
2024/02/22 07:48:08;;;;;;;19.70;7.60;;;;;;;15.02;76.53;99295.63;5048919;28;20067;-50
2024/02/22 07:50:36;;;;;;;21.83;7.60;;;;;;;14.72;77.31;99288.63;5049022;28;20545;-48
2024/02/22 07:53:02;;;;;;;25.98;7.72;;;;;;;14.89;77.13;99282.00;5048822;28;20427;-51
2024/02/22 07:55:28;;;;;;;24.98;7.38;;;;;;;15.06;76.59;99284.16;5048954;28;20029;-48
2024/02/22 07:57:54;;;;;;;20.58;6.35;;;;;;;14.93;76.96;99278.41;5048417;28;20033;-47
2024/02/22 08:00:19;;;;;;;21.10;7.20;;;;;;;15.03;76.33;99274.59;5048582;28;20039;-46
2024/02/22 08:02:45;;;;;;;22.90;7.30;;;;;;;15.06;76.20;99271.03;5048609;28;20043;-46
2024/02/22 08:05:11;;;;;;;17.40;6.10;;;;;;;14.92;76.19;99267.94;5049322;28;20390;-50
2024/02/22 08:07:40;;;;;;;17.90;5.95;;;;;;;15.06;76.16;99251.78;5048618;28;20033;-50
2024/02/22 08:10:07;;;;;;;17.73;5.97;;;;;;;14.86;76.63;99247.13;5048191;28;20029;-51
2024/02/22 08:12:32;;;;;;;18.20;5.95;;;;;;;15.10;76.52;99240.28;5051297;28;20083;-46
2024/02/22 08:14:58;;;;;;;19.27;6.65;;;;;;;15.19;76.54;99239.97;5052041;28;20492;-44
2024/02/22 08:17:24;;;;;;;15.23;6.32;;;;;;;15.22;76.63;99232.03;5052432;28;20043;-49
2024/02/22 08:19:50;;;;;;;14.77;6.05;;;;;;;15.26;76.26;99215.25;5051135;28;20071;-47
2024/02/22 08:22:16;;;;;;;16.45;6.28;;;;;;;14.80;76.77;99198.34;5052431;28;20426;-49
2024/02/22 08:24:42;;;;;;;15.27;6.80;;;;;;;14.76;77.41;99190.59;5051800;28;20029;-48
2024/02/22 08:27:07;;;;;;;13.63;6.03;;;;;;;15.08;76.26;99182.56;5052339;28;20622;-45
2024/02/22 08:29:33;;;;;;;20.20;7.45;;;;;;;15.10;75.90;99190.41;5052097;28;20084;-47
2024/02/22 08:31:58;;;;;;;16.55;7.00;;;;;;;15.13;75.81;99187.66;5051715;28;20034;-47
2024/02/22 08:34:23;;;;;;;14.60;7.05;;;;;;;15.24;75.51;99186.44;5052233;28;20041;-48
2024/02/22 08:36:49;;;;;;;17.77;7.70;;;;;;;15.14;76.12;99176.28;5051833;28;20036;-47
2024/02/22 08:39:16;;;;;;;21.30;8.10;;;;;;;15.27;75.57;99169.72;5051862;28;20411;-50
2024/02/22 08:41:41;;;;;;;17.83;7.05;;;;;;;15.05;76.38;99161.69;5051236;28;20041;-48
2024/02/22 08:44:06;;;;;;;16.90;6.50;;;;;;;15.29;75.45;99158.28;5051955;28;20036;-45
2024/02/22 08:46:32;;;;;;;12.55;5.53;;;;;;;15.35;75.50;99154.59;5051926;28;20467;-52
2024/02/22 08:48:57;;;;;;;11.18;5.00;;;;;;;15.24;75.13;99149.69;5051882;28;20048;-44
2024/02/22 08:51:22;;;;;;;13.30;4.47;;;;;;;15.18;75.47;99143.78;5051467;28;20039;-49
2024/02/22 08:53:48;;;;;;;13.25;4.35;;;;;;;15.45;75.00;99148.09;5051226;28;20123;-53
2024/02/22 08:56:13;;;;;;;11.25;3.92;;;;;;;15.18;74.72;99134.16;5051526;28;20072;-46
2024/02/22 08:58:38;;;;;;;13.38;4.18;;;;;;;15.34;75.02;99135.34;5051122;28;20167;-47
2024/02/22 09:01:08;;;;;;;11.25;4.03;;;;;;;15.43;74.96;99126.28;5050980;28;20044;-48
2024/02/22 09:03:33;;;;;;;11.38;4.05;;;;;;;15.39;74.17;99119.44;5051792;28;20035;-47
2024/02/22 09:08:26;;;;;;;9.10;4.00;;;;;;;15.54;74.15;99097.94;5027018;28;20411;-47
2024/02/22 09:10:52;;;;;;;10.18;4.25;;;;;;;15.42;74.62;99080.81;5030722;28;20060;-47
2024/02/22 09:13:18;;;;;;;10.60;4.82;;;;;;;15.25;74.35;99075.25;5031550;28;20038;-48
2024/02/22 09:15:49;;;;;;;9.38;4.75;;;;;;;15.47;73.72;99069.28;5031017;28;20029;-49
2024/02/22 09:18:15;;;;;;;11.60;5.18;;;;;;;15.44;73.94;99078.97;5031927;28;20060;-46
2024/02/22 09:20:40;;;;;;;11.27;4.93;;;;;;;15.48;73.85;99076.25;5028333;28;20168;-48
2024/02/22 09:23:05;;;;;;;10.95;5.78;;;;;;;15.32;74.51;99066.25;5031726;28;20036;-48
2024/02/22 09:25:30;;;;;;;12.85;5.65;;;;;;;15.51;74.74;99053.34;5031931;28;20481;-46
2024/02/22 09:27:56;;;;;;;14.73;5.78;;;;;;;15.77;74.56;99047.19;5031312;28;20045;-46
2024/02/22 09:30:21;;;;;;;14.13;5.70;;;;;;;15.91;72.92;99038.81;5031180;28;20052;-46
2024/02/22 09:32:46;;;;;;;10.73;5.78;;;;;;;16.02;72.71;99032.22;5030977;28;20040;-46
2024/02/22 09:35:12;;;;;;;12.20;5.80;;;;;;;15.57;73.17;99045.28;5031606;28;20029;-48
2024/02/22 09:37:37;;;;;;;13.75;5.72;;;;;;;15.93;72.34;99035.19;5030809;28;20034;-46
2024/02/22 09:40:03;;;;;;;10.15;5.35;;;;;;;15.73;72.37;99007.06;5030684;28;20062;-46
2024/02/22 09:42:28;;;;;;;11.38;5.25;;;;;;;15.77;72.98;99000.75;5031350;28;20034;-52
2024/02/22 09:44:57;;;;;;;10.32;5.25;;;;;;;15.85;73.25;99000.47;5031008;28;20049;-44
2024/02/22 09:47:22;;;;;;;10.25;5.28;;;;;;;16.20;72.26;98978.09;5031142;28;20577;-46
2024/02/22 09:49:48;;;;;;;10.20;5.20;;;;;;;16.26;73.13;98959.44;5030732;28;20045;-49
2024/02/22 09:52:14;;;;;;;9.05;4.70;;;;;;;16.55;72.00;98952.97;5031066;28;20049;-47
2024/02/22 09:54:43;;;;;;;8.60;4.95;;;;;;;16.52;70.93;98946.09;5030575;28;20042;-50
2024/02/22 09:57:09;;;;;;;8.45;4.68;;;;;;;16.60;70.52;98943.16;5031199;28;20038;-52
2024/02/22 09:59:35;;;;;;;9.88;4.45;;;;;;;16.79;70.04;98949.34;5030778;28;20033;-47
2024/02/22 10:02:05;;;;;;;7.47;3.92;;;;;;;16.84;69.40;98951.78;5030073;28;20059;-48
2024/02/22 10:04:31;;;;;;;7.00;3.90;;;;;;;16.41;70.30;98956.16;5030709;28;20044;-45
2024/02/22 10:07:00;;;;;;;7.43;3.83;;;;;;;16.66;69.39;98945.53;5030733;28;20176;-45
2024/02/22 10:09:27;;;;;;;5.47;3.58;;;;;;;16.73;69.91;98940.88;5030691;28;20121;-46
2024/02/22 10:11:53;;;;;;;6.10;3.30;;;;;;;16.83;69.03;98919.34;5030008;28;20033;-45
2024/02/22 10:14:18;;;;;;;6.32;3.45;;;;;;;16.71;69.27;98906.72;5030947;28;20404;-47
2024/02/22 10:16:46;;;;;;;6.22;3.20;;;;;;;16.96;68.44;98891.56;5030558;28;20069;-46
2024/02/22 10:19:13;;;;;;;7.60;3.30;;;;;;;16.76;67.90;98885.50;5030964;28;20033;-47
2024/02/22 10:21:38;;;;;;;6.60;3.67;;;;;;;16.48;68.54;98880.50;5029534;28;20072;-48
2024/02/22 10:24:04;;;;;;;5.93;3.65;;;;;;;16.83;68.28;98874.59;5030172;28;20400;-48
2024/02/22 10:26:29;;;;;;;5.97;3.47;;;;;;;16.97;67.99;98881.91;5029994;28;20041;-46
2024/02/22 10:28:56;;;;;;;6.13;3.80;;;;;;;16.75;69.08;98876.72;5029513;28;20034;-50
2024/02/22 10:31:21;;;;;;;5.72;3.60;;;;;;;16.86;68.86;98858.69;5029924;28;20041;-46
2024/02/22 10:33:48;;;;;;;6.53;3.60;;;;;;;16.93;67.92;98851.38;5027967;28;20412;-49
2024/02/22 10:36:14;;;;;;;5.97;3.65;;;;;;;16.65;69.21;98832.47;5030022;28;20853;-47
2024/02/22 10:38:41;;;;;;;6.68;3.75;;;;;;;16.80;68.74;98837.06;5029711;28;20045;-47
2024/02/22 10:41:09;;;;;;;8.43;3.40;;;;;;;16.72;69.73;98829.50;5029647;28;20036;-48
2024/02/22 10:43:38;;;;;;;5.57;3.47;;;;;;;16.81;69.25;98831.72;5029647;28;20037;-45
2024/02/22 10:46:07;;;;;;;6.05;3.50;;;;;;;17.16;68.34;98824.00;5027988;28;20041;-46
2024/02/22 10:48:35;;;;;;;6.10;3.53;;;;;;;16.85;69.35;98830.66;5029858;28;20618;-49
2024/02/22 10:51:03;;;;;;;5.53;3.50;;;;;;;16.73;69.48;98825.94;5028907;28;20029;-49
2024/02/22 10:53:35;;;;;;;8.13;4.00;;;;;;;16.78;69.55;98815.19;5029749;28;20518;-44
2024/02/22 10:56:03;;;;;;;6.53;3.72;;;;;;;17.00;69.87;98798.41;5029037;28;20033;-48
2024/02/22 10:58:32;;;;;;;7.07;3.60;;;;;;;16.72;70.71;98804.94;5029588;28;20033;-45
2024/02/22 11:01:02;;;;;;;6.35;3.72;;;;;;;16.87;70.25;98777.97;5028653;28;20037;-50
2024/02/22 11:03:28;;;;;;;4.45;3.33;;;;;;;16.97;69.61;98784.50;5029541;28;20065;-47
2024/02/22 11:05:53;;;;;;;5.28;3.33;;;;;;;17.14;68.89;98774.03;5029082;28;20044;-49
2024/02/22 11:08:23;;;;;;;5.97;3.28;;;;;;;17.43;68.32;98754.25;5029672;28;20041;-48
2024/02/22 11:11:04;;;;;;;4.75;3.30;;;;;;;17.34;68.92;98745.00;5028690;28;20388;-50
2024/02/22 11:13:30;;;;;;;6.13;3.38;;;;;;;16.75;70.39;98726.75;5029608;28;20037;-52
2024/02/22 11:15:55;;;;;;;4.43;3.25;;;;;;;17.20;68.99;98726.34;5028869;28;20055;-46
2024/02/22 11:18:24;;;;;;;5.63;3.22;;;;;;;17.41;68.68;98717.44;5029665;28;20065;-48
2024/02/22 11:20:50;;;;;;;5.28;3.38;;;;;;;17.42;68.16;98705.97;5028466;28;20030;-49
2024/02/22 11:23:18;;;;;;;4.85;3.40;;;;;;;17.53;68.04;98687.00;5029349;28;20076;-47